Time;durP1;ratioP1;P1;durP2;ratioP2;P2;SDS_P1;SDS_P2;PMS_P1;PMS_P2;Temp;Humidity;BMP_temperature;BMP_pressure;BME280_temperature;BME280_humidity;BME280_pressure;Samples;Min_cycle;Max_cycle;Signal;HPM_P1;HPM_P2
2020/02/04 00:02:11;;;;;;;28.2;5.9;;;;;;;;;;;;;
2020/02/04 00:04:24;;;;;;;31.2;6.5;;;;;;;;;;;;;
2020/02/04 00:06:50;;;;;;;28.5;6.1;;;;;;;;;;;;;
2020/02/04 00:09:14;;;;;;;27.9;5.8;;;;;;;;;;;;;
2020/02/04 00:11:41;;;;;;;32.7;6;;;;;;;;;;;;;
2020/02/04 00:14:04;;;;;;;38.5;5.8;;;;;;;;;;;;;
2020/02/04 00:18:54;;;;;;;37.3;6.4;;;;;;;;;;;;;
2020/02/04 00:21:22;;;;;;;34.5;6;;;;;;;;;;;;;
2020/02/04 00:24:19;;;;;;;33.3;6.4;;;;;;;;;;;;;
2020/02/04 00:26:42;;;;;;;34.4;6.1;;;;;;;;;;;;;
2020/02/04 00:29:11;;;;;;;35.4;6.2;;;;;;;;;;;;;
2020/02/04 00:31:37;;;;;;;33.2;6.6;;;;;;;;;;;;;
2020/02/04 00:33:59;;;;;;;34.4;6;;;;;;;;;;;;;
2020/02/04 00:36:22;;;;;;;36.3;6.6;;;;;;;;;;;;;
2020/02/04 00:38:50;;;;;;;42.4;7.1;;;;;;;;;;;;;
2020/02/04 00:41:13;;;;;;;32.6;6.4;;;;;;;;;;;;;
2020/02/04 00:43:38;;;;;;;31.2;6.3;;;;;;;;;;;;;
2020/02/04 00:46:04;;;;;;;37.8;7;;;;;;;;;;;;;
2020/02/04 00:48:30;;;;;;;35;6.4;;;;;;;;;;;;;
2020/02/04 00:53:19;;;;;;;42.1;7.4;;;;;;;;;;;;;
2020/02/04 00:55:44;;;;;;;41.3;6.8;;;;;;;;;;;;;
2020/02/04 00:58:12;;;;;;;43.4;7.1;;;;;;;;;;;;;
2020/02/04 01:00:36;;;;;;;41;7.5;;;;;;;;;;;;;
2020/02/04 01:02:59;;;;;;;42.7;6.9;;;;;;;;;;;;;
2020/02/04 01:08:24;;;;;;;38.2;6.9;;;;;;;;;;;;;
2020/02/04 01:10:50;;;;;;;43.2;6.9;;;;;;;;;;;;;
2020/02/04 01:13:21;;;;;;;40.6;7;;;;;;;;;;;;;
2020/02/04 01:18:35;;;;;;;37.4;7.3;;;;;;;;;;;;;
2020/02/04 01:21:01;;;;;;;46.6;7.4;;;;;;;;;;;;;
2020/02/04 01:23:43;;;;;;;44.8;7.1;;;;;;;;;;;;;
2020/02/04 01:33:45;;;;;;;41.4;7.3;;;;;;;;;;;;;
2020/02/04 01:36:23;;;;;;;46.7;7.1;;;;;;;;;;;;;
2020/02/04 01:38:49;;;;;;;36.9;7.8;;;;;;;;;;;;;
2020/02/04 01:41:13;;;;;;;41.1;7.3;;;;;;;;;;;;;
2020/02/04 01:43:43;;;;;;;53.3;7.8;;;;;;;;;;;;;
2020/02/04 01:46:07;;;;;;;40.7;7.3;;;;;;;;;;;;;
2020/02/04 01:48:35;;;;;;;47.7;7.9;;;;;;;;;;;;;
2020/02/04 01:51:01;;;;;;;45.9;7.4;;;;;;;;;;;;;
2020/02/04 01:53:26;;;;;;;44.5;8.1;;;;;;;;;;;;;
2020/02/04 01:55:54;;;;;;;45.7;7.9;;;;;;;;;;;;;
2020/02/04 01:58:19;;;;;;;53;8;;;;;;;;;;;;;
2020/02/04 02:00:45;;;;;;;45;7.5;;;;;;;;;;;;;
2020/02/04 02:03:17;;;;;;;45.6;7.4;;;;;;;;;;;;;
2020/02/04 02:07:09;;;;;;;46.3;8;;;;;;;;;;;;;
2020/02/04 02:09:34;;;;;;;47.5;8;;;;;;;;;;;;;
2020/02/04 02:12:01;;;;;;;51.8;8;;;;;;;;;;;;;
2020/02/04 02:14:27;;;;;;;47.3;7.8;;;;;;;;;;;;;
2020/02/04 02:16:51;;;;;;;43.3;8;;;;;;;;;;;;;
2020/02/04 02:19:20;;;;;;;41.2;9;;;;;;;;;;;;;
2020/02/04 02:22:18;;;;;;;41.3;9.5;;;;;;;;;;;;;
2020/02/04 02:24:41;;;;;;;48.8;7.8;;;;;;;;;;;;;
2020/02/04 02:27:13;;;;;;;52.7;7.6;;;;;;;;;;;;;
2020/02/04 02:29:45;;;;;;;45.2;8;;;;;;;;;;;;;
2020/02/04 02:34:27;;;;;;;43.4;8;;;;;;;;;;;;;
2020/02/04 02:37:02;;;;;;;37.8;7.5;;;;;;;;;;;;;
2020/02/04 02:39:21;;;;;;;41.7;7.7;;;;;;;;;;;;;
2020/02/04 02:41:44;;;;;;;54.2;7.8;;;;;;;;;;;;;
2020/02/04 02:44:07;;;;;;;45.1;7.6;;;;;;;;;;;;;
2020/02/04 02:46:33;;;;;;;46.6;7.4;;;;;;;;;;;;;
2020/02/04 02:49:03;;;;;;;45.7;7.5;;;;;;;;;;;;;
2020/02/04 02:51:28;;;;;;;42.5;7.6;;;;;;;;;;;;;
2020/02/04 02:53:53;;;;;;;47.1;8.9;;;;;;;;;;;;;
2020/02/04 02:56:22;;;;;;;44.1;8.1;;;;;;;;;;;;;
2020/02/04 03:01:21;;;;;;;42.6;8.9;;;;;;;;;;;;;
2020/02/04 03:03:48;;;;;;;43.8;7.8;;;;;;;;;;;;;
2020/02/04 03:06:12;;;;;;;32.7;6.4;;;;;;;;;;;;;
2020/02/04 03:08:37;;;;;;;45.3;7.1;;;;;;;;;;;;;
2020/02/04 03:11:01;;;;;;;43.4;7.7;;;;;;;;;;;;;
2020/02/04 03:13:29;;;;;;;40;7.1;;;;;;;;;;;;;
2020/02/04 03:21:17;;;;;;;41.5;6.4;;;;;;;;;;;;;
2020/02/04 03:23:37;;;;;;;35.1;6.6;;;;;;;;;;;;;
2020/02/04 03:26:17;;;;;;;37.8;6.7;;;;;;;;;;;;;
2020/02/04 03:28:33;;;;;;;34.7;6.1;;;;;;;;;;;;;
2020/02/04 03:30:59;;;;;;;33.8;6;;;;;;;;;;;;;
2020/02/04 03:33:24;;;;;;;38.4;6.1;;;;;;;;;;;;;
2020/02/04 03:35:53;;;;;;;34.2;5.7;;;;;;;;;;;;;
2020/02/04 03:38:19;;;;;;;29.2;5.1;;;;;;;;;;;;;
2020/02/04 03:40:48;;;;;;;37.2;6;;;;;;;;;;;;;
2020/02/04 03:43:12;;;;;;;27.4;5.5;;;;;;;;;;;;;
2020/02/04 03:45:37;;;;;;;30.8;6.1;;;;;;;;;;;;;
2020/02/04 03:48:03;;;;;;;32.8;5.6;;;;;;;;;;;;;
2020/02/04 03:50:32;;;;;;;34.1;5.4;;;;;;;;;;;;;
2020/02/04 03:52:53;;;;;;;26.7;5;;;;;;;;;;;;;
2020/02/04 03:55:19;;;;;;;29.1;4.8;;;;;;;;;;;;;
2020/02/04 03:57:52;;;;;;;29;5.2;;;;;;;;;;;;;
2020/02/04 04:02:33;;;;;;;25.2;4.4;;;;;;;9.23;84.25879;921.442;;;;
2020/02/04 04:04:58;;;;;;;19.8;3.3;;;;;;;9.84;72.94336;921.5989;;;;
2020/02/04 04:07:23;;;;;;;20.6;3.2;;;;;;;10.6;68.90332;921.8192;;;;
2020/02/04 04:09:54;;;;;;;15;2.7;;;;;;;11.43;64.52832;921.8375;;;;
2020/02/04 04:12:16;;;;;;;14.9;2.9;;;;;;;11.76;64.22266;921.5909;;;;
2020/02/04 04:14:40;;;;;;;12.9;2.4;;;;;;;12.06;64.54199;921.6064;;;;
2020/02/04 04:17:30;;;;;;;16.7;3.3;;;;;;;12.22;62.08984;921.4219;;;;
2020/02/04 04:19:54;;;;;;;12.4;2.6;;;;;;;12.27;61.89063;921.9339;;;;
2020/02/04 04:22:28;;;;;;;17.8;2.9;;;;;;;12.06;71.07324;922.4042;;;;
2020/02/04 04:25:10;;;;;;;15.3;2.8;;;;;;;11.76;72.83301;922.5062;;;;
2020/02/04 04:27:55;;;;;;;18.2;3.8;;;;;;;11.58;74.7373;922.9623;;;;
2020/02/04 04:31:26;;;;;;;18.9;2.8;;;;;;;11.17;78.32422;923.4242;;;;
2020/02/04 04:33:55;;;;;;;14.1;2.2;;;;;;;10.57;78.2627;923.8196;;;;
2020/02/04 04:36:33;;;;;;;8.2;1.5;;;;;;;10.44;78.88867;924.1326;;;;
2020/02/04 04:41:17;;;;;;;8;1.5;;;;;;;10.41;78.87207;924.4366;;;;
2020/02/04 04:43:44;;;;;;;5.4;1.2;;;;;;;10.47;79.38574;924.7648;;;;
2020/02/04 04:46:33;;;;;;;7.1;1.4;;;;;;;10.71;77.99121;925.1856;;;;
2020/02/04 04:48:58;;;;;;;6.8;1.7;;;;;;;10.66;78.54102;925.5212;;;;
2020/02/04 04:51:31;;;;;;;8.1;1.8;;;;;;;10.78;80.64355;925.9514;;;;
2020/02/04 04:53:54;;;;;;;6.4;1.2;;;;;;;10.54;79.62598;926.062;;;;
2020/02/04 04:56:25;;;;;;;4.3;1.1;;;;;;;10.23;80.97266;926.4792;;;;
2020/02/04 04:58:50;;;;;;;3.2;0.8;;;;;;;9.96;80.34082;926.9075;;;;
2020/02/04 05:01:31;;;;;;;1.6;0.5;;;;;;;9.85;78.10938;927.4751;;;;
2020/02/04 05:03:51;;;;;;;0.8;0.2;;;;;;;9.55;71.86914;927.7009;;;;
2020/02/04 05:06:30;;;;;;;1.1;0.2;;;;;;;9.21;77.24316;928.2497;;;;
2020/02/04 05:09:02;;;;;;;1.4;0.3;;;;;;;9;79.49316;928.4416;;;;
2020/02/04 05:11:43;;;;;;;0;0;;;;;;;8.79;74.63281;928.6866;;;;
2020/02/04 05:16:46;;;;;;;1;0.2;;;;;;;8.46;79.25488;929.1912;;;;
2020/02/04 05:19:15;;;;;;;0.7;0.3;;;;;;;8.27;81.12793;929.4986;;;;
2020/02/04 05:24:12;;;;;;;0.5;0.3;;;;;;;7.91;82.60352;930.079;;;;
2020/02/04 05:26:40;;;;;;;0.2;0.1;;;;;;;7.76;80.32813;930.6119;;;;
2020/02/04 05:29:10;;;;;;;0.7;0.2;;;;;;;7.68;82.35547;930.5836;;;;
2020/02/04 05:31:36;;;;;;;0.5;0.4;;;;;;;7.4;81.92773;930.6559;;;;
2020/02/04 05:34:07;;;;;;;1.2;0.5;;;;;;;6.87;81.61133;930.9959;;;;
2020/02/04 05:37:11;;;;;;;0.8;0.5;;;;;;;6.78;83.83691;930.9164;;;;
2020/02/04 05:39:37;;;;;;;0.3;0.1;;;;;;;6.52;82.32617;931.0592;;;;
2020/02/04 05:42:19;;;;;;;1;0.2;;;;;;;6.67;83.92578;931.2693;;;;
2020/02/04 05:44:48;;;;;;;0.6;0.3;;;;;;;6.43;85.33984;931.3625;;;;
2020/02/04 05:47:10;;;;;;;1;0.2;;;;;;;6.38;85.95117;931.4042;;;;
2020/02/04 05:49:43;;;;;;;0.3;0.2;;;;;;;6.47;86.61426;931.7023;;;;
2020/02/04 05:52:08;;;;;;;0.7;0.2;;;;;;;6.48;86.24219;931.7578;;;;
2020/02/04 05:54:37;;;;;;;0.6;0.3;;;;;;;6.26;85.33984;931.7417;;;;
2020/02/04 05:57:07;;;;;;;1.3;0.6;;;;;;;6.44;85.45313;931.8963;;;;
2020/02/04 05:59:26;;;;;;;1.4;0.7;;;;;;;6.66;85.29492;932.2162;;;;
2020/02/04 06:01:52;;;;;;;0.9;0.3;;;;;;;6.8;83.20703;932.4009;;;;
2020/02/04 06:04:20;;;;;;;0.3;0.2;;;;;;;6.49;79.83105;932.2679;;;;
2020/02/04 06:06:52;;;;;;;0.6;0.4;;;;;;;5.98;81.95117;932.3422;;;;
2020/02/04 06:14:26;;;;;;;0.9;0.4;;;;;;;5.62;80.33594;932.5588;;;;
2020/02/04 06:15:43;;;;;;;0.6;0.5;;;;;;;5.5;83.24805;932.7363;;;;
2020/02/04 06:18:08;;;;;;;0.1;0.1;;;;;;;5.5;82.52539;932.6013;;;;
2020/02/04 06:20:53;;;;;;;0.9;0.3;;;;;;;5.38;84.89453;932.9286;;;;
2020/02/04 06:23:09;;;;;;;0.6;0.2;;;;;;;5.33;82.0752;933.1185;;;;
2020/02/04 06:25:45;;;;;;;1;0.7;;;;;;;5.04;84.63477;933.0128;;;;
2020/02/04 06:28:10;;;;;;;0.1;0.1;;;;;;;5.08;83.90918;932.9008;;;;
2020/02/04 06:30:39;;;;;;;0.7;0.5;;;;;;;5.18;84.90039;933.0142;;;;
2020/02/04 06:33:01;;;;;;;0.8;0.5;;;;;;;5.31;82.78223;933.0226;;;;
2020/02/04 06:35:26;;;;;;;0.2;0.1;;;;;;;5.3;82.96094;933.0952;;;;
2020/02/04 06:37:54;;;;;;;0.9;0.4;;;;;;;5.12;82.48633;932.8102;;;;
2020/02/04 06:40:19;;;;;;;0.1;0.1;;;;;;;5.11;82.53906;933.1192;;;;
2020/02/04 06:42:44;;;;;;;0.4;0.2;;;;;;;5.3;82.75781;933.2625;;;;
2020/02/04 06:45:13;;;;;;;2.1;1.3;;;;;;;5.62;83.34961;933.2695;;;;
2020/02/04 06:47:41;;;;;;;4.8;3.3;;;;;;;5.71;83.02637;933.3027;;;;
2020/02/04 06:50:06;;;;;;;1.8;1.2;;;;;;;5.93;82.00879;933.4647;;;;
2020/02/04 06:52:32;;;;;;;7.4;4.6;;;;;;;5.94;82.28125;933.4547;;;;
2020/02/04 06:55:00;;;;;;;1.6;1.1;;;;;;;5.95;83.04004;933.5206;;;;
2020/02/04 06:57:26;;;;;;;2.3;1.3;;;;;;;5.83;83.7832;933.6616;;;;
2020/02/04 06:59:53;;;;;;;0.5;0.4;;;;;;;5.51;84.46777;933.582;;;;
2020/02/04 07:02:18;;;;;;;0.8;0.4;;;;;;;5.7;84.91016;933.5261;;;;
2020/02/04 07:04:50;;;;;;;0.5;0.2;;;;;;;5.93;81.79395;933.4387;;;;
2020/02/04 07:07:17;;;;;;;0.5;0.2;;;;;;;6.02;79.32617;933.53;;;;
2020/02/04 07:09:41;;;;;;;2;0.5;;;;;;;6.15;80.52637;933.6058;;;;
2020/02/04 07:12:06;;;;;;;1.5;0.8;;;;;;;6.04;81.33984;933.6789;;;;
2020/02/04 07:14:30;;;;;;;1.3;0.7;;;;;;;6.13;81.35742;933.592;;;;
2020/02/04 07:17:03;;;;;;;1.5;0.4;;;;;;;6.09;78.30078;933.5803;;;;
2020/02/04 07:19:29;;;;;;;0.4;0.3;;;;;;;5.97;79.91602;933.698;;;;
2020/02/04 07:21:58;;;;;;;0.5;0.4;;;;;;;6;79.49219;933.7126;;;;
2020/02/04 07:24:23;;;;;;;1;0.8;;;;;;;5.92;81.38574;933.7206;;;;
2020/02/04 07:26:51;;;;;;;0.6;0.5;;;;;;;5.59;82.52051;933.4707;;;;
2020/02/04 07:29:26;;;;;;;1.8;0.9;;;;;;;5.25;85.02539;933.9205;;;;
2020/02/04 07:32:10;;;;;;;1.9;1.4;;;;;;;5.32;84.55469;933.585;;;;
2020/02/04 07:34:37;;;;;;;5.2;3.6;;;;;;;4.94;86.45215;933.7528;;;;
2020/02/04 07:37:05;;;;;;;2.4;0.9;;;;;;;5.35;86.03809;933.7316;;;;
2020/02/04 07:39:37;;;;;;;1.6;1.3;;;;;;;5.54;84.58691;933.6789;;;;
2020/02/04 07:42:08;;;;;;;7.9;5.2;;;;;;;5.52;84.38965;933.6469;;;;
2020/02/04 07:44:32;;;;;;;2.7;1.7;;;;;;;5.55;83.89941;933.6223;;;;
2020/02/04 07:47:10;;;;;;;1.5;0.9;;;;;;;5.51;82.04199;933.5623;;;;
2020/02/04 07:49:55;;;;;;;1.1;0.8;;;;;;;5.77;82.83594;933.616;;;;
2020/02/04 07:52:20;;;;;;;2.7;1.2;;;;;;;6.05;82.04395;933.5891;;;;
2020/02/04 07:54:54;;;;;;;3;1;;;;;;;6.18;81.49219;933.3883;;;;
2020/02/04 07:58:23;;;;;;;1.8;1.1;;;;;;;6.4;80.65332;933.4208;;;;
2020/02/04 08:03:15;;;;;;;2.8;0.8;;;;;;;5.61;83.09961;933.4856;;;;
2020/02/04 08:05:33;;;;;;;1.5;0.2;;;;;;;5.39;81.91602;933.265;;;;
2020/02/04 08:07:55;;;;;;;1.2;0.5;;;;;;;5.49;82.03809;933.2817;;;;
2020/02/04 08:10:48;;;;;;;0.9;0.4;;;;;;;5.48;80.10742;933.1836;;;;
2020/02/04 08:15:34;;;;;;;0.8;0.3;;;;;;;4.78;78.83691;933.0578;;;;
2020/02/04 08:18:03;;;;;;;0.3;0.2;;;;;;;4.81;80.00098;933.0303;;;;
2020/02/04 08:20:48;;;;;;;0.6;0.3;;;;;;;5.07;79.75879;932.9929;;;;
2020/02/04 08:23:14;;;;;;;0.6;0.5;;;;;;;4.99;79.84473;933.0075;;;;
2020/02/04 08:26:49;;;;;;;1.4;0.4;;;;;;;5.38;79.5;932.9001;;;;
2020/02/04 08:29:00;;;;;;;0.8;0.5;;;;;;;5.5;78.74316;932.9612;;;;
2020/02/04 08:30:54;;;;;;;2.5;1;;;;;;;5.67;77.74805;932.9838;;;;
2020/02/04 08:41:11;;;;;;;1.1;0.6;;;;;;;5.14;79.73633;932.9092;;;;
2020/02/04 08:44:07;;;;;;;1;0.8;;;;;;;5.1;79.69824;932.8713;;;;
2020/02/04 08:50:23;;;;;;;2;0.6;;;;;;;5.11;82.03125;932.9883;;;;
2020/02/04 08:51:45;;;;;;;1.8;0.7;;;;;;;5.21;81.54297;933.1531;;;;
2020/02/04 08:56:22;;;;;;;1.5;0.6;;;;;;;5.16;75.9873;933.0951;;;;
2020/02/04 09:01:39;;;;;;;1.3;1;;;;;;;5.01;75.95996;933.3278;;;;
2020/02/04 09:04:26;;;;;;;1.5;0.7;;;;;;;5.07;79.80371;933.2991;;;;
2020/02/04 09:06:54;;;;;;;1.6;0.5;;;;;;;5.25;78.78711;933.2921;;;;
2020/02/04 09:09:07;;;;;;;0.7;0.5;;;;;;;5.33;78.48828;933.4178;;;;
2020/02/04 09:13:27;;;;;;;0.7;0.4;;;;;;;5.38;73.37402;933.2885;;;;
2020/02/04 09:15:52;;;;;;;1;0.5;;;;;;;5.27;70.31152;933.3139;;;;
2020/02/04 09:18:18;;;;;;;1.8;0.4;;;;;;;5.58;73.68066;933.4059;;;;
2020/02/04 09:20:56;;;;;;;6;4.5;;;;;;;5.21;80.46094;933.5825;;;;
2020/02/04 09:23:18;;;;;;;5.5;3.6;;;;;;;5.44;80.03125;933.5151;;;;
2020/02/04 09:25:45;;;;;;;1.8;0.9;;;;;;;5.53;77.22656;933.3433;;;;
2020/02/04 09:28:09;;;;;;;1;0.7;;;;;;;5.51;77.85547;933.4564;;;;
2020/02/04 09:30:42;;;;;;;1;0.5;;;;;;;5.06;68.66406;933.5316;;;;
2020/02/04 09:33:16;;;;;;;0.7;0.5;;;;;;;4.83;67.15234;933.322;;;;
2020/02/04 09:35:47;;;;;;;0.9;0.5;;;;;;;5.11;65.86426;933.3053;;;;
2020/02/04 09:38:16;;;;;;;0.7;0.6;;;;;;;4.94;67.78711;933.1775;;;;
2020/02/04 09:43:17;;;;;;;1.4;0.4;;;;;;;5.26;66.76758;933.1447;;;;
2020/02/04 09:45:49;;;;;;;0.8;0.5;;;;;;;5.33;61.86035;933.1139;;;;
2020/02/04 09:48:29;;;;;;;0.8;0.5;;;;;;;5.61;66.83398;932.9842;;;;
2020/02/04 09:50:55;;;;;;;1.2;0.5;;;;;;;5.92;70.58691;932.8208;;;;
2020/02/04 09:53:27;;;;;;;1.5;1.2;;;;;;;5.95;76.36426;932.7556;;;;
2020/02/04 09:55:52;;;;;;;1;0.6;;;;;;;5.9;61.68359;932.6631;;;;
2020/02/04 09:58:21;;;;;;;0.9;0.5;;;;;;;5.68;62.14746;932.5581;;;;
2020/02/04 10:00:52;;;;;;;2.3;1.5;;;;;;;5.8;68.28613;932.6016;;;;
2020/02/04 10:03:23;;;;;;;2.4;0.7;;;;;;;5.81;60.20215;932.6903;;;;
2020/02/04 10:05:47;;;;;;;1.8;1;;;;;;;5.63;66.8252;932.6733;;;;
2020/02/04 10:08:21;;;;;;;1.7;0.9;;;;;;;5.41;71.17871;932.8149;;;;
2020/02/04 10:10:58;;;;;;;1.1;0.7;;;;;;;5.33;68.03125;932.9639;;;;
2020/02/04 10:13:31;;;;;;;1;0.7;;;;;;;4.98;70.79297;933.0656;;;;
2020/02/04 10:16:07;;;;;;;1.1;0.6;;;;;;;4.98;71.69434;933.0931;;;;
2020/02/04 10:18:44;;;;;;;1.4;0.7;;;;;;;4.89;74.38379;933.1725;;;;
2020/02/04 10:21:14;;;;;;;2.3;0.9;;;;;;;4.62;76.63379;933.2787;;;;
2020/02/04 10:23:37;;;;;;;1.4;0.9;;;;;;;4.42;77.66699;933.3962;;;;
2020/02/04 10:26:01;;;;;;;2.4;1.4;;;;;;;4.4;79.26074;933.5582;;;;
2020/02/04 10:28:28;;;;;;;3.4;1.1;;;;;;;4.11;80.24316;933.5737;;;;
2020/02/04 10:30:54;;;;;;;3;1.8;;;;;;;3.67;82.04785;933.5488;;;;
2020/02/04 10:33:22;;;;;;;2.9;1;;;;;;;3.27;83.95605;933.3387;;;;
2020/02/04 10:35:53;;;;;;;1.9;1.6;;;;;;;3.34;85.13867;933.4761;;;;
2020/02/04 10:38:17;;;;;;;2.7;2;;;;;;;3.31;84.63867;933.4847;;;;
2020/02/04 10:40:47;;;;;;;1.9;1.6;;;;;;;3.3;85.09766;933.5703;;;;
2020/02/04 10:43:11;;;;;;;2.1;1.3;;;;;;;3.26;84.50488;933.7358;;;;
2020/02/04 10:45:52;;;;;;;2.9;2.2;;;;;;;3.11;85.11523;933.7068;;;;
2020/02/04 10:48:08;;;;;;;2.7;1.6;;;;;;;3.06;85.74414;933.5267;;;;
2020/02/04 10:50:39;;;;;;;1.3;1;;;;;;;3.1;86.19141;933.8253;;;;
2020/02/04 10:53:19;;;;;;;4.5;4;;;;;;;3.24;85.65723;933.7572;;;;
2020/02/04 11:01:11;;;;;;;1.1;0.9;;;;;;;3.42;84.75195;933.7329;;;;
2020/02/04 11:03:37;;;;;;;0.8;0.5;;;;;;;3.2;84.38184;933.6314;;;;
2020/02/04 11:08:41;;;;;;;1.7;0.5;;;;;;;2.85;82.02441;933.5068;;;;
2020/02/04 11:11:16;;;;;;;2;1.5;;;;;;;2.92;77.63965;933.6575;;;;
2020/02/04 11:13:48;;;;;;;1.6;0.8;;;;;;;3.06;80.84082;933.6071;;;;
2020/02/04 11:16:20;;;;;;;1.5;0.7;;;;;;;2.89;78.04004;933.6096;;;;
2020/02/04 11:18:45;;;;;;;3.2;1.1;;;;;;;3.05;74.26465;933.506;;;;
2020/02/04 11:21:14;;;;;;;3;0.7;;;;;;;3.12;73.82813;933.8455;;;;
2020/02/04 11:23:45;;;;;;;2.2;0.8;;;;;;;3.35;69.6123;933.544;;;;
2020/02/04 11:26:10;;;;;;;5.1;1.1;;;;;;;3.2;73.61816;933.6265;;;;
2020/02/04 11:28:46;;;;;;;1.5;0.8;;;;;;;3.24;73.99609;933.8722;;;;
2020/02/04 11:31:17;;;;;;;3.2;0.8;;;;;;;3.21;72.22754;933.8067;;;;
2020/02/04 11:33:59;;;;;;;2.5;0.9;;;;;;;3.25;71.91992;933.7411;;;;
2020/02/04 11:36:22;;;;;;;1.4;0.8;;;;;;;3.38;69.70605;933.6462;;;;
2020/02/04 11:38:55;;;;;;;2.7;0.9;;;;;;;3.25;70.63965;933.7419;;;;
2020/02/04 11:41:19;;;;;;;1.5;0.8;;;;;;;3.54;66.22852;933.5559;;;;
2020/02/04 11:43:50;;;;;;;3.1;1.1;;;;;;;3.45;66.39551;933.5811;;;;
2020/02/04 11:46:19;;;;;;;2.5;0.8;;;;;;;3.15;68.80566;933.582;;;;
2020/02/04 11:48:45;;;;;;;1.9;0.7;;;;;;;3.2;67.56836;933.7901;;;;
2020/02/04 11:52:05;;;;;;;1.6;0.8;;;;;;;3.27;70.33984;933.7463;;;;
2020/02/04 11:54:29;;;;;;;3.8;2.1;;;;;;;3.39;69.45117;933.9387;;;;
2020/02/04 11:56:56;;;;;;;3.4;1.9;;;;;;;3.45;70.20313;934.0164;;;;
2020/02/04 11:59:25;;;;;;;2.4;1.3;;;;;;;3.68;71.56543;933.9892;;;;
2020/02/04 12:01:48;;;;;;;2.5;1;;;;;;;3.56;73.34375;934.1689;;;;
2020/02/04 12:04:13;;;;;;;1.7;1;;;;;;;3.44;75.29785;934.3591;;;;
2020/02/04 12:06:42;;;;;;;2.1;1.2;;;;;;;3.05;75.08398;934.4608;;;;
2020/02/04 12:09:18;;;;;;;4;2.5;;;;;;;2.7;78.64258;934.468;;;;
2020/02/04 12:11:42;;;;;;;2.7;1.8;;;;;;;2.66;80.46289;934.4612;;;;
2020/02/04 12:14:10;;;;;;;3;1.7;;;;;;;2.86;81.75879;934.475;;;;
2020/02/04 12:16:36;;;;;;;3;0.8;;;;;;;2.7;80.46973;934.3586;;;;
2020/02/04 12:19:06;;;;;;;1;0.6;;;;;;;2.88;78.93359;934.3152;;;;
2020/02/04 12:22:17;;;;;;;3.2;1.1;;;;;;;2.9;80.4082;934.1144;;;;
2020/02/04 12:24:58;;;;;;;2;1;;;;;;;3.3;80.58398;934.073;;;;
2020/02/04 12:27:20;;;;;;;3.4;1.8;;;;;;;3.42;79.61816;934.0759;;;;
2020/02/04 12:29:48;;;;;;;2.7;1;;;;;;;3.5;79.0498;934.0058;;;;
2020/02/04 12:32:22;;;;;;;3.4;1.2;;;;;;;3.65;78.50488;933.8884;;;;
2020/02/04 12:34:59;;;;;;;5;1.9;;;;;;;3.89;79.26758;934.0433;;;;
2020/02/04 12:37:28;;;;;;;8.2;5.2;;;;;;;3.79;78.74316;934.0584;;;;
2020/02/04 12:39:54;;;;;;;5.4;3.6;;;;;;;3.68;79.56641;934.1412;;;;
2020/02/04 12:42:20;;;;;;;5.3;3.7;;;;;;;3.79;79.54297;933.979;;;;
2020/02/04 12:44:48;;;;;;;2.7;1.5;;;;;;;4.11;77.52148;934.0975;;;;
2020/02/04 12:47:19;;;;;;;4.6;2.7;;;;;;;3.93;77.24121;933.9948;;;;
2020/02/04 12:49:49;;;;;;;3.4;1.6;;;;;;;4.18;77.70215;934.0017;;;;
2020/02/04 12:52:25;;;;;;;3.2;1.3;;;;;;;4.24;75.66504;933.9801;;;;
2020/02/04 12:54:52;;;;;;;2.5;1.2;;;;;;;4.38;75.08203;933.9023;;;;
2020/02/04 12:57:32;;;;;;;2.2;1.2;;;;;;;4.49;75.14746;933.9645;;;;
2020/02/04 12:59:57;;;;;;;5.3;2.1;;;;;;;4.43;75.45117;934.0528;;;;
2020/02/04 13:02:28;;;;;;;3.2;1.7;;;;;;;4.27;76.72754;934.0872;;;;
2020/02/04 13:05:00;;;;;;;3.1;1.5;;;;;;;4.15;77.1123;934.067;;;;
2020/02/04 13:07:25;;;;;;;2.2;1.1;;;;;;;4.15;74.99707;934.116;;;;
2020/02/04 13:09:56;;;;;;;2.6;1.7;;;;;;;4.15;76.35645;934.2742;;;;
2020/02/04 13:12:21;;;;;;;2.3;1.1;;;;;;;3.92;76.39453;934.4048;;;;
2020/02/04 13:15:06;;;;;;;1.4;0.9;;;;;;;3.78;76.49414;934.4354;;;;
2020/02/04 13:18:18;;;;;;;1.2;0.7;;;;;;;3.5;77.05078;934.4177;;;;
2020/02/04 13:22:51;;;;;;;2.7;1.3;;;;;;;2.79;81.59668;934.4222;;;;
2020/02/04 13:25:37;;;;;;;3.2;1.3;;;;;;;3.07;81.07813;934.5432;;;;
2020/02/04 13:28:21;;;;;;;6.9;4;;;;;;;3.34;80.93945;934.3133;;;;
2020/02/04 13:33:05;;;;;;;4.3;2.4;;;;;;;3.23;81.28906;934.1912;;;;
2020/02/04 13:48:20;;;;;;;7.2;4.2;;;;;;;3.38;75.32227;933.925;;;;
2020/02/04 13:53:06;;;;;;;5.4;3.6;;;;;;;3.08;80.69922;934.1022;;;;
2020/02/04 13:57:18;;;;;;;6.1;3.9;;;;;;;3.24;80.16992;934.1766;;;;
2020/02/04 13:58:29;;;;;;;4.4;3;;;;;;;3.64;78.03027;934.0588;;;;
2020/02/04 14:02:57;;;;;;;5.3;2.7;;;;;;;3.63;77.23242;934.0903;;;;
2020/02/04 14:05:25;;;;;;;7.5;4.8;;;;;;;3.59;74.48145;934.009;;;;
2020/02/04 14:10:15;;;;;;;1.8;0.9;;;;;;;3.52;67.97949;934.0443;;;;
2020/02/04 14:18:12;;;;;;;2.6;1.4;;;;;;;3.25;77.66699;934.4523;;;;
2020/02/04 14:21:01;;;;;;;2.8;1.7;;;;;;;3.24;78.56348;934.6446;;;;
2020/02/04 14:22:48;;;;;;;3.4;2.2;;;;;;;2.97;79.16406;934.6231;;;;
2020/02/04 14:25:25;;;;;;;3.2;1.8;;;;;;;3.01;80.47363;934.6035;;;;
2020/02/04 14:28:04;;;;;;;3.3;1.3;;;;;;;2.85;81.125;934.7434;;;;
2020/02/04 14:30:28;;;;;;;3.6;1.9;;;;;;;3.05;82.25293;934.6976;;;;
2020/02/04 14:33:04;;;;;;;2.1;0.9;;;;;;;2.98;82.2168;934.7232;;;;
2020/02/04 14:37:57;;;;;;;2.6;2.3;;;;;;;3.17;82.12012;934.843;;;;
2020/02/04 14:40:19;;;;;;;2.2;1.3;;;;;;;3.21;81.9707;934.8035;;;;
2020/02/04 14:46:03;;;;;;;4.9;3.5;;;;;;;3.27;78.77148;934.921;;;;
2020/02/04 14:50:38;;;;;;;2.3;1.2;;;;;;;2.83;78.71387;934.9434;;;;
2020/02/04 14:53:11;;;;;;;2.3;1.3;;;;;;;2.79;82.9541;935.0803;;;;
2020/02/04 14:58:16;;;;;;;9;5.6;;;;;;;2.83;79.8584;935.1196;;;;
2020/02/04 15:00:53;;;;;;;7.9;4.2;;;;;;;2.69;78.37305;935.2034;;;;
2020/02/04 15:03:22;;;;;;;3.7;1.5;;;;;;;2.64;77.51172;935.1522;;;;
2020/02/04 15:09:10;;;;;;;3;1.6;;;;;;;2.86;72.11328;935.13;;;;
2020/02/04 15:15:49;;;;;;;4;1.3;;;;;;;3.53;75.99902;935.2487;;;;
2020/02/04 15:18:02;;;;;;;3.5;1.1;;;;;;;3.42;77.64355;935.0385;;;;
2020/02/04 15:20:31;;;;;;;4.4;2.3;;;;;;;3.59;74.79883;935.1326;;;;
2020/02/04 15:23:00;;;;;;;4.8;1.5;;;;;;;3.56;74.40918;935.0062;;;;
2020/02/04 15:25:32;;;;;;;3.2;1.3;;;;;;;3.47;75.70898;935.1028;;;;
2020/02/04 15:27:56;;;;;;;8.1;6.1;;;;;;;3.2;76.77148;935.1262;;;;
2020/02/04 15:30:26;;;;;;;13.6;11.3;;;;;;;3.16;77.66309;935.2061;;;;
2020/02/04 15:32:57;;;;;;;1.8;0.9;;;;;;;3.17;71.59277;935.3338;;;;
2020/02/04 15:35:32;;;;;;;4.4;2.7;;;;;;;3.13;73.38086;935.4543;;;;
2020/02/04 15:37:58;;;;;;;4.6;2.8;;;;;;;3.3;72.72559;935.645;;;;
2020/02/04 15:41:12;;;;;;;3.1;1.5;;;;;;;2.95;75.75;935.6786;;;;
2020/02/04 15:43:40;;;;;;;61.8;41.1;;;;;;;3.03;77.64941;935.6185;;;;
2020/02/04 15:46:06;;;;;;;2.7;1.3;;;;;;;3.04;75.8916;935.6624;;;;
2020/02/04 15:48:39;;;;;;;58.6;37.5;;;;;;;3.04;78.83105;935.59;;;;
2020/02/04 15:51:00;;;;;;;17.5;10.4;;;;;;;3.14;78.70215;935.6355;;;;
2020/02/04 15:53:40;;;;;;;2.5;1.4;;;;;;;3.22;75.84375;935.6234;;;;
2020/02/04 15:56:35;;;;;;;112.1;79.5;;;;;;;3.31;74.80469;935.5572;;;;
2020/02/04 16:10:54;;;;;;;98;74.8;;;;;;;2.59;80.30566;935.8986;;;;
2020/02/04 16:13:32;;;;;;;7.6;5.2;;;;;;;2.66;80.85547;935.934;;;;
2020/02/04 16:16:26;;;;;;;10.8;8.2;;;;;;;2.61;82.13574;935.8035;;;;
2020/02/04 16:22:27;;;;;;;2.8;1.2;;;;;;;2.39;79.62695;935.9844;;;;
2020/02/04 16:23:28;;;;;;;4.1;1.9;;;;;;;2.4;80.24512;936.0272;;;;
2020/02/04 16:26:30;;;;;;;9.5;5.6;;;;;;;2.54;81.33594;936.1;;;;
2020/02/04 16:28:36;;;;;;;11.6;6.8;;;;;;;2.53;81.94043;936.1555;;;;
2020/02/04 16:33:48;;;;;;;8.2;5.7;;;;;;;2.47;80.43652;936.1069;;;;
2020/02/04 16:36:45;;;;;;;8.2;4.3;;;;;;;2.04;80.61523;936.3853;;;;
2020/02/04 16:41:39;;;;;;;3.9;1.3;;;;;;;2.57;77.83594;936.1933;;;;
2020/02/04 16:48:57;;;;;;;2.6;0.9;;;;;;;2.9;72.4541;936.4969;;;;
2020/02/04 16:51:37;;;;;;;7.6;5.4;;;;;;;2.76;74.90918;936.5774;;;;
2020/02/04 16:54:03;;;;;;;4;2.7;;;;;;;2.79;75.41895;936.503;;;;
2020/02/04 16:57:07;;;;;;;4.2;2.3;;;;;;;2.79;75.62012;936.5715;;;;
2020/02/04 16:59:37;;;;;;;26.9;22.3;;;;;;;3.03;72.95996;936.556;;;;
2020/02/04 17:02:10;;;;;;;10;6.1;;;;;;;3.1;73.54297;936.4522;;;;
2020/02/04 17:04:47;;;;;;;5.7;3.7;;;;;;;3;76.34375;936.5627;;;;
2020/02/04 17:07:08;;;;;;;5.2;3.2;;;;;;;2.88;76.27539;936.5962;;;;
2020/02/04 17:09:41;;;;;;;6.1;4.4;;;;;;;3.05;77.67578;936.5859;;;;
2020/02/04 17:12:08;;;;;;;3.7;1.8;;;;;;;2.87;77.55273;936.7302;;;;
2020/02/04 17:14:36;;;;;;;4.8;2.2;;;;;;;2.71;79.68652;936.9261;;;;
2020/02/04 17:17:03;;;;;;;5.9;3.9;;;;;;;2.83;80.75488;937.0427;;;;
2020/02/04 17:19:47;;;;;;;10.2;8.1;;;;;;;2.96;80.65527;937.0466;;;;
2020/02/04 17:22:01;;;;;;;5.6;3.9;;;;;;;2.84;79.71191;937.1436;;;;
2020/02/04 17:24:29;;;;;;;2.6;1.8;;;;;;;2.96;78.06445;937.0944;;;;
2020/02/04 17:27:03;;;;;;;2.3;1.3;;;;;;;3.04;76.80957;937.1581;;;;
2020/02/04 17:29:33;;;;;;;5.2;2.9;;;;;;;2.48;78.53516;937.3183;;;;
2020/02/04 17:33:37;;;;;;;4.6;2.8;;;;;;;2.92;78.8623;937.1934;;;;
2020/02/04 17:36:08;;;;;;;4.1;2;;;;;;;2.92;75.98145;937.1512;;;;
2020/02/04 17:38:31;;;;;;;3.4;2;;;;;;;3.03;76.72949;937.253;;;;
2020/02/04 17:41:03;;;;;;;4.3;2.2;;;;;;;3.1;76.92188;937.2162;;;;
2020/02/04 17:43:31;;;;;;;9.6;3.4;;;;;;;3.08;77.83887;937.2769;;;;
2020/02/04 17:46:08;;;;;;;10;5.5;;;;;;;2.97;78.63672;937.2757;;;;
2020/02/04 17:48:33;;;;;;;4.3;2;;;;;;;2.9;80.00293;937.3588;;;;
2020/02/04 17:51:07;;;;;;;5.2;4;;;;;;;2.95;79.51758;937.3235;;;;
2020/02/04 17:53:31;;;;;;;3.7;2.4;;;;;;;2.88;79.35059;937.3401;;;;
2020/02/04 17:56:01;;;;;;;5.5;2;;;;;;;3.05;78.56152;937.2978;;;;
2020/02/04 17:58:25;;;;;;;4.5;2.3;;;;;;;3.1;77.01172;937.309;;;;
2020/02/04 18:00:53;;;;;;;13.4;7.9;;;;;;;3.11;79.4375;937.4124;;;;
2020/02/04 18:03:26;;;;;;;5.1;2.5;;;;;;;3.01;79.99316;937.3947;;;;
2020/02/04 18:05:59;;;;;;;4.4;1.7;;;;;;;2.88;79.49414;937.3077;;;;
2020/02/04 18:08:47;;;;;;;4.1;1.6;;;;;;;2.94;79.34961;937.3494;;;;
2020/02/04 18:11:10;;;;;;;10.5;7.4;;;;;;;2.71;80.60742;937.3588;;;;
2020/02/04 18:13:34;;;;;;;8.3;6.1;;;;;;;2.72;82.37891;937.3047;;;;
2020/02/04 18:21:04;;;;;;;9.5;4.3;;;;;;;2.7;79.6416;937.3097;;;;
2020/02/04 18:32:01;;;;;;;4.1;2.9;;;;;;;2.7;75.07715;937.704;;;;
2020/02/04 18:34:45;;;;;;;3.4;1.9;;;;;;;2.76;76.68066;937.8621;;;;
2020/02/04 18:40:03;;;;;;;1.8;1;;;;;;;2.82;78.21582;938.0831;;;;
2020/02/04 18:44:57;;;;;;;1.5;0.9;;;;;;;2.37;81.48535;937.9465;;;;